createdAt,value
2019-04-25T00:01:40.142Z,100382.66
2019-04-25T00:04:08.602Z,100404.08
2019-04-25T00:06:37.385Z,100422.73
2019-04-25T00:09:11.859Z,100432.36
2019-04-25T00:11:40.129Z,100431.56
2019-04-25T00:14:08.702Z,100427.19
2019-04-25T00:16:39.483Z,100448.41
2019-04-25T00:19:07.709Z,100436.45
2019-04-25T00:21:38.225Z,100414.02
2019-04-25T00:24:12.167Z,100434.02
2019-04-25T00:26:44.036Z,100414.03
2019-04-25T00:29:13.222Z,100404.21
2019-04-25T00:31:43.671Z,100392.95
2019-04-25T00:34:12.146Z,100395.91
2019-04-25T00:36:43.034Z,100395.48
2019-04-25T00:39:11.839Z,100394.22
2019-04-25T00:41:42.360Z,100392.67
2019-04-25T00:44:10.129Z,100403.59
2019-04-25T00:46:38.355Z,100402.80
2019-04-25T00:49:06.607Z,100410.88
2019-04-25T00:51:34.862Z,100406.50
2019-04-25T00:54:03.085Z,100423.78
2019-04-25T00:56:32.202Z,100438.59
2019-04-25T00:59:02.157Z,100428.89
2019-04-25T01:01:32.013Z,100422.59
2019-04-25T01:04:02.266Z,100418.73
2019-04-25T01:06:31.939Z,100415.74
2019-04-25T01:09:01.532Z,100396.36
2019-04-25T01:11:31.411Z,100368.33
2019-04-25T01:13:59.675Z,100388.82
2019-04-25T01:16:28.165Z,100399.53
2019-04-25T01:18:56.642Z,100389.09
2019-04-25T01:21:25.348Z,100383.08
2019-04-25T01:23:54.533Z,100389.55
2019-04-25T01:26:23.982Z,100387.12
2019-04-25T01:28:53.792Z,100404.48
2019-04-25T01:31:24.927Z,100413.84
2019-04-25T01:33:54.626Z,100420.34
2019-04-25T01:36:30.965Z,100431.27
2019-04-25T01:39:16.138Z,100440.20
2019-04-25T01:42:03.610Z,100455.55
2019-04-25T01:44:34.299Z,100458.38
2019-04-25T01:47:04.105Z,100483.96
2019-04-25T01:49:33.909Z,100510.06
2019-04-25T01:52:03.528Z,100511.52
2019-04-25T01:54:33.816Z,100517.22
2019-04-25T01:57:02.247Z,100515.99
2019-04-25T01:59:30.721Z,100516.12
2019-04-25T02:01:58.953Z,100524.05
2019-04-25T02:04:27.468Z,100525.57
2019-04-25T02:06:55.731Z,100528.14
2019-04-25T02:09:25.017Z,100529.32
2019-04-25T02:11:57.814Z,100532.13
2019-04-25T02:14:26.205Z,100532.46
2019-04-25T02:16:55.899Z,100541.13
2019-04-25T02:19:24.605Z,100543.38
2019-04-25T02:21:55.148Z,100549.56
2019-04-25T02:24:23.700Z,100546.27
2019-04-25T02:26:53.272Z,100543.48
2019-04-25T02:29:23.532Z,100544.34
2019-04-25T02:31:53.708Z,100535.77
2019-04-25T02:34:21.759Z,100539.09
2019-04-25T02:36:49.991Z,100547.18
2019-04-25T02:39:18.755Z,100544.42
2019-04-25T02:41:46.989Z,100545.27
2019-04-25T02:44:15.453Z,100542.22
2019-04-25T02:46:50.889Z,100545.62
2019-04-25T02:49:32.933Z,100544.84
2019-04-25T02:52:02.325Z,100552.36
2019-04-25T02:54:30.801Z,100542.16
2019-04-25T02:56:59.973Z,100540.25
2019-04-25T02:59:28.319Z,100542.80
2019-04-25T03:01:57.611Z,100546.69
2019-04-25T03:04:26.541Z,100550.62
2019-04-25T03:06:55.537Z,100550.38
2019-04-25T03:09:24.991Z,100546.23
2019-04-25T03:11:54.822Z,100547.39
2019-04-25T03:14:26.382Z,100429.65
2019-04-25T03:16:54.374Z,100542.20
2019-04-25T03:19:40.784Z,100547.77
2019-04-25T03:22:11.833Z,100533.11
2019-04-25T03:24:40.597Z,100533.97
2019-04-25T03:27:09.143Z,100536.78
2019-04-25T03:29:37.421Z,100537.63
2019-04-25T03:32:09.957Z,100537.38
2019-04-25T03:34:35.873Z,100538.48
2019-04-25T03:37:05.354Z,100533.23
2019-04-25T03:39:34.036Z,100542.94
2019-04-25T03:42:04.875Z,100547.39
2019-04-25T03:44:33.663Z,100549.91
2019-04-25T03:47:05.297Z,100559.62
2019-04-25T03:49:33.693Z,100565.45
2019-04-25T03:52:02.853Z,100561.59
2019-04-25T03:54:33.285Z,100561.33
2019-04-25T03:57:04.756Z,100565.20
2019-04-25T03:59:33.502Z,100573.55
2019-04-25T04:02:03.840Z,100575.48
2019-04-25T04:04:33.487Z,100580.77
2019-04-25T04:07:04.407Z,100578.54
2019-04-25T04:09:33.695Z,100577.44
2019-04-25T04:12:04.323Z,100580.78
2019-04-25T04:14:33.860Z,100577.17
2019-04-25T04:17:10.696Z,100580.78
2019-04-25T04:19:40.848Z,100588.81
2019-04-25T04:22:11.230Z,100609.34
2019-04-25T04:24:41.163Z,100614.30
2019-04-25T04:27:11.794Z,100627.32
2019-04-25T04:29:40.246Z,100647.28
2019-04-25T04:32:08.706Z,100643.67
2019-04-25T04:34:36.980Z,100645.04
2019-04-25T04:37:05.471Z,100644.19
2019-04-25T04:39:33.919Z,100646.61
2019-04-25T04:42:03.843Z,100648.46
2019-04-25T04:44:32.122Z,100653.19
2019-04-25T04:47:00.673Z,100658.96
2019-04-25T04:49:28.903Z,100660.37
2019-04-25T04:51:57.122Z,100662.38
2019-04-25T04:54:25.425Z,100660.16
2019-04-25T04:56:53.734Z,100669.34
2019-04-25T04:59:23.764Z,100674.18
2019-04-25T05:01:59.732Z,100677.56
2019-04-25T05:04:33.453Z,100684.07
2019-04-25T05:07:04.103Z,100693.47
2019-04-25T05:09:33.474Z,100705.34
2019-04-25T05:12:02.031Z,100710.46
2019-04-25T05:14:30.267Z,100709.08
2019-04-25T05:16:58.464Z,100726.38
2019-04-25T05:19:26.667Z,100719.58
2019-04-25T05:21:54.884Z,100722.98
2019-04-25T05:24:26.073Z,100723.98
2019-04-25T05:26:54.021Z,100732.77
2019-04-25T05:29:24.146Z,100740.12
2019-04-25T05:31:54.282Z,100745.13
2019-04-25T05:34:24.705Z,100745.37
2019-04-25T05:36:53.872Z,100750.10
2019-04-25T05:39:23.727Z,100742.58
2019-04-25T05:41:56.583Z,100753.05
2019-04-25T05:44:27.320Z,100754.67
2019-04-25T05:46:54.742Z,100762.30
2019-04-25T05:49:24.309Z,100764.07
2019-04-25T05:51:53.859Z,100763.30
2019-04-25T05:54:24.173Z,100765.08
2019-04-25T05:56:53.775Z,100765.08
2019-04-25T05:59:22.035Z,100768.13
2019-04-25T06:01:50.254Z,100772.80
2019-04-25T06:04:19.075Z,100780.39
2019-04-25T06:06:47.268Z,100786.52
2019-04-25T06:09:33.730Z,100792.84
2019-04-25T06:12:05.536Z,100791.66
2019-04-25T06:14:34.103Z,100790.59
2019-04-25T06:17:03.937Z,100796.41
2019-04-25T06:19:39.773Z,100802.45
2019-04-25T06:22:09.623Z,100800.50
2019-04-25T06:24:42.261Z,100799.28
2019-04-25T06:27:13.858Z,100796.69
2019-04-25T06:29:43.288Z,100798.31
2019-04-25T06:32:11.495Z,100804.61
2019-04-25T06:34:39.706Z,100815.02
2019-04-25T06:37:07.912Z,100815.80
2019-04-25T06:39:36.426Z,100816.74
2019-04-25T06:42:04.831Z,100817.55
2019-04-25T06:44:40.969Z,100811.55
2019-04-25T06:47:13.038Z,100818.05
2019-04-25T06:49:43.350Z,100813.47
2019-04-25T06:52:11.551Z,100817.64
2019-04-25T06:54:39.752Z,100819.02
2019-04-25T06:57:08.002Z,100822.83
2019-04-25T06:59:39.567Z,100830.48
2019-04-25T07:02:06.470Z,100828.42
2019-04-25T07:04:34.899Z,100828.81
2019-04-25T07:07:10.567Z,100836.78
2019-04-25T07:09:34.965Z,100836.97
2019-04-25T07:12:03.695Z,100826.31
2019-04-25T07:14:31.899Z,100833.93
2019-04-25T07:17:00.123Z,100839.20
2019-04-25T07:19:28.390Z,100834.06
2019-04-25T07:21:56.643Z,100824.66
2019-04-25T07:24:25.888Z,100819.32
2019-04-25T07:27:13.768Z,100815.94
2019-04-25T07:29:49.406Z,100819.76
2019-04-25T07:32:30.825Z,100815.02
2019-04-25T07:34:58.354Z,100823.19
2019-04-25T07:37:27.628Z,100821.60
2019-04-25T07:39:56.291Z,100821.98
2019-04-25T07:42:25.943Z,100818.53
2019-04-25T07:44:55.211Z,100818.53
2019-04-25T07:47:24.261Z,100821.55
2019-04-25T07:49:54.105Z,100825.66
2019-04-25T07:52:23.392Z,100826.55
2019-04-25T07:54:53.786Z,100817.25
2019-04-25T07:57:23.805Z,100821.16
2019-04-25T07:59:53.710Z,100816.06
2019-04-25T08:02:23.314Z,100819.05
2019-04-25T08:04:51.520Z,100815.73
2019-04-25T08:07:20.023Z,100820.23
2019-04-25T08:09:48.267Z,100824.34
2019-04-25T08:12:16.474Z,100816.31
2019-04-25T08:14:46.327Z,100818.04
2019-04-25T08:17:16.237Z,100809.47
2019-04-25T08:19:44.463Z,100812.77
2019-04-25T08:22:13.601Z,100817.36
2019-04-25T08:24:41.897Z,100815.81
2019-04-25T08:27:10.113Z,100810.37
2019-04-25T08:29:39.690Z,100814.06
2019-04-25T08:32:08.148Z,100820.67
2019-04-25T08:34:37.307Z,100815.94
2019-04-25T08:37:17.618Z,100823.19
2019-04-25T08:39:38.092Z,100820.95
2019-04-25T08:42:05.964Z,100811.89
2019-04-25T08:44:35.714Z,100815.95
2019-04-25T08:47:04.548Z,100817.85
2019-04-25T08:49:38.085Z,100816.78
2019-04-25T08:52:06.484Z,100819.52
2019-04-25T08:54:42.172Z,100817.55
2019-04-25T08:57:10.315Z,100827.11
2019-04-25T08:59:49.125Z,100821.50
2019-04-25T09:02:27.355Z,100823.73
2019-04-25T09:05:14.478Z,100828.28
2019-04-25T09:07:44.474Z,100834.05
2019-04-25T09:10:13.779Z,100835.91
2019-04-25T09:12:44.232Z,100837.91
2019-04-25T09:15:14.198Z,100836.44
2019-04-25T09:17:44.493Z,100837.70
2019-04-25T09:20:13.984Z,100829.34
2019-04-25T09:22:44.241Z,100828.19
2019-04-25T09:25:13.715Z,100827.73
2019-04-25T09:27:43.073Z,100826.33
2019-04-25T09:30:14.400Z,100829.11
2019-04-25T09:32:44.416Z,100828.28
2019-04-25T09:35:13.768Z,100827.02
2019-04-25T09:37:43.877Z,100827.52
2019-04-25T09:40:15.885Z,100828.65
2019-04-25T09:42:45.202Z,100830.26
2019-04-25T09:45:18.270Z,100828.76
2019-04-25T09:47:48.106Z,100838.44
2019-04-25T09:50:17.991Z,100844.95
2019-04-25T09:52:47.096Z,100839.08
2019-04-25T09:55:19.672Z,100838.16
2019-04-25T09:57:58.975Z,100832.94
2019-04-25T10:00:33.283Z,100821.34
2019-04-25T10:03:01.765Z,100818.29
2019-04-25T10:05:30.019Z,100813.64
2019-04-25T10:07:58.246Z,100811.22
2019-04-25T10:10:26.836Z,100811.69
2019-04-25T10:12:55.045Z,100822.94
2019-04-25T10:15:49.102Z,100821.53
2019-04-25T10:18:17.947Z,100818.11
2019-04-25T10:20:47.474Z,100831.42
2019-04-25T10:23:15.766Z,100827.95
2019-04-25T10:25:45.095Z,100829.81
2019-04-25T10:28:13.402Z,100826.20
2019-04-25T10:30:41.676Z,100823.13
2019-04-25T10:33:10.472Z,100823.87
2019-04-25T10:35:48.005Z,100819.59
2019-04-25T10:38:09.187Z,100816.49
2019-04-25T10:40:38.476Z,100822.32
2019-04-25T10:43:08.103Z,100825.36
2019-04-25T10:45:36.883Z,100819.01
2019-04-25T10:48:05.100Z,100812.39
2019-04-25T10:50:34.122Z,100813.09
2019-04-25T10:53:03.950Z,100816.41
2019-04-25T10:55:32.253Z,100813.61
2019-04-25T10:58:00.481Z,100822.22
2019-04-25T11:00:34.240Z,100822.62
2019-04-25T11:03:04.779Z,100811.25
2019-04-25T11:05:34.306Z,100805.17
2019-04-25T11:08:04.289Z,100814.81
2019-04-25T11:10:34.302Z,100813.86
2019-04-25T11:13:03.980Z,100827.18
2019-04-25T11:15:33.899Z,100820.62
2019-04-25T11:18:02.202Z,100820.62
2019-04-25T11:20:30.972Z,100821.42
2019-04-25T11:22:59.185Z,100814.84
2019-04-25T11:25:27.411Z,100816.73
2019-04-25T11:27:55.627Z,100811.25
2019-04-25T11:30:25.481Z,100805.39
2019-04-25T11:32:54.706Z,100812.92
2019-04-25T11:35:24.142Z,100808.93
2019-04-25T11:37:54.914Z,100812.82
2019-04-25T11:40:30.559Z,100801.84
2019-04-25T11:42:58.821Z,100805.27
2019-04-25T11:45:27.359Z,100795.76
2019-04-25T11:47:55.569Z,100800.25
2019-04-25T11:50:24.130Z,100801.88
2019-04-25T11:52:54.823Z,100799.28
2019-04-25T11:55:23.935Z,100798.12
2019-04-25T11:57:54.550Z,100803.39
2019-04-25T12:00:24.559Z,100802.58
2019-04-25T12:02:52.787Z,100815.38
2019-04-25T12:05:21.190Z,100807.48
2019-04-25T12:07:50.044Z,100799.97
2019-04-25T12:10:19.160Z,100795.47
2019-04-25T12:12:47.478Z,100804.45
2019-04-25T12:15:15.706Z,100818.45
2019-04-25T12:17:44.836Z,100804.70
2019-04-25T12:20:14.305Z,100806.23
2019-04-25T12:22:44.530Z,100807.89
2019-04-25T12:25:13.634Z,100816.69
2019-04-25T12:27:45.486Z,100813.39
2019-04-25T12:30:14.041Z,100814.55
2019-04-25T12:32:44.056Z,100819.25
2019-04-25T12:35:14.256Z,100814.88
2019-04-25T12:37:44.214Z,100809.00
2019-04-25T12:40:14.104Z,100821.82
2019-04-25T12:42:44.356Z,100820.81
2019-04-25T12:45:24.140Z,100814.00
2019-04-25T12:47:56.591Z,100803.18
2019-04-25T12:50:24.724Z,100803.76
2019-04-25T12:52:54.501Z,100810.70
2019-04-25T12:55:23.976Z,100803.98
2019-04-25T12:57:54.891Z,100807.02
2019-04-25T13:00:26.318Z,100811.73
2019-04-25T13:02:56.585Z,100804.78
2019-04-25T13:05:24.997Z,100810.55
2019-04-25T13:07:56.683Z,100820.22
2019-04-25T13:10:23.580Z,100808.44
2019-04-25T13:12:53.953Z,100817.49
2019-04-25T13:15:25.247Z,100811.34
2019-04-25T13:17:53.512Z,100804.13
2019-04-25T13:20:21.877Z,100798.45
2019-04-25T13:22:50.124Z,100800.80
2019-04-25T13:25:19.984Z,100796.53
2019-04-25T13:28:08.455Z,100804.52
2019-04-25T13:31:01.367Z,100807.02
2019-04-25T13:33:33.475Z,100809.47
2019-04-25T13:36:08.960Z,100809.94
2019-04-25T13:38:37.463Z,100811.81
2019-04-25T13:41:05.936Z,100807.30
2019-04-25T13:43:35.047Z,100801.30
2019-04-25T13:46:03.457Z,100795.52
2019-04-25T13:48:32.360Z,100790.20
2019-04-25T13:51:00.578Z,100799.88
2019-04-25T13:53:29.427Z,100792.08
2019-04-25T13:55:57.746Z,100790.63
2019-04-25T13:58:26.933Z,100779.09
2019-04-25T14:00:57.062Z,100779.77
2019-04-25T14:03:25.333Z,100779.22
2019-04-25T14:05:54.037Z,100786.08
2019-04-25T14:08:24.458Z,100782.20
2019-04-25T14:10:54.289Z,100780.91
2019-04-25T14:13:24.185Z,100773.59
2019-04-25T14:15:54.089Z,100762.16
2019-04-25T14:18:24.049Z,100742.55
2019-04-25T14:20:53.868Z,100742.55
2019-04-25T14:23:24.411Z,100751.07
2019-04-25T14:25:52.159Z,100761.46
2019-04-25T14:28:20.923Z,100753.80
2019-04-25T14:30:50.141Z,100763.86
2019-04-25T14:33:18.362Z,100758.20
2019-04-25T14:35:46.591Z,100759.15
2019-04-25T14:38:15.018Z,100763.27
2019-04-25T14:40:43.603Z,100754.69
2019-04-25T14:43:11.932Z,100757.17
2019-04-25T14:45:44.764Z,100757.17
2019-04-25T14:48:10.415Z,100752.84
2019-04-25T14:50:38.689Z,100737.51
2019-04-25T14:53:06.889Z,100733.52
2019-04-25T14:55:37.046Z,100738.13
2019-04-25T14:58:07.159Z,100744.45
2019-04-25T15:00:37.011Z,100735.42
2019-04-25T15:03:05.231Z,100736.61
2019-04-25T15:05:33.445Z,100732.82
2019-04-25T15:08:01.663Z,100744.24
2019-04-25T15:10:30.773Z,100738.95
2019-04-25T15:12:59.037Z,100738.47
2019-04-25T15:15:27.560Z,100744.03
2019-04-25T15:17:56.073Z,100740.27
2019-04-25T15:20:24.848Z,100742.39
2019-04-25T15:22:53.115Z,100743.06
2019-04-25T15:25:21.375Z,100727.42
2019-04-25T15:27:49.587Z,100730.59
2019-04-25T15:30:19.444Z,100735.66
2019-04-25T15:32:47.745Z,100731.78
2019-04-25T15:35:17.605Z,100737.56
2019-04-25T15:37:51.469Z,100736.62
2019-04-25T15:40:21.571Z,100737.00
2019-04-25T15:43:00.297Z,100727.13
2019-04-25T15:45:32.892Z,100728.31
2019-04-25T15:48:01.373Z,100721.95
2019-04-25T15:50:29.852Z,100719.13
2019-04-25T15:52:58.183Z,100724.08
2019-04-25T15:55:27.343Z,100719.01
2019-04-25T15:57:55.673Z,100709.72
2019-04-25T16:00:26.988Z,100708.94
2019-04-25T16:02:55.237Z,100706.34
2019-04-25T16:05:23.698Z,100704.10
2019-04-25T16:07:51.919Z,100701.76
2019-04-25T16:10:20.409Z,100701.08
2019-04-25T16:12:48.611Z,100700.61
2019-04-25T16:15:16.865Z,100705.89
2019-04-25T16:17:45.085Z,100704.70
2019-04-25T16:20:13.670Z,100705.89
2019-04-25T16:22:41.895Z,100700.24
2019-04-25T16:25:10.296Z,100694.96
2019-04-25T16:27:39.008Z,100694.34
2019-04-25T16:30:08.071Z,100697.65
2019-04-25T16:32:36.680Z,100690.85
2019-04-25T16:35:08.171Z,100682.61
2019-04-25T16:37:36.887Z,100682.94
2019-04-25T16:40:06.609Z,100688.02
2019-04-25T16:42:35.933Z,100685.05
2019-04-25T16:45:06.591Z,100685.53
2019-04-25T16:47:35.223Z,100682.14
2019-04-25T16:50:04.701Z,100684.81
2019-04-25T16:52:33.822Z,100683.08
2019-04-25T16:55:02.158Z,100682.83
2019-04-25T16:57:30.518Z,100681.77
2019-04-25T16:59:59.727Z,100680.11
2019-04-25T17:02:35.700Z,100681.63
2019-04-25T17:05:00.148Z,100677.17
2019-04-25T17:07:28.423Z,100679.16
2019-04-25T17:09:56.907Z,100679.16
2019-04-25T17:12:25.389Z,100686.20
2019-04-25T17:15:07.291Z,100680.92
2019-04-25T17:17:49.265Z,100679.62
2019-04-25T17:20:21.760Z,100686.16
2019-04-25T17:22:50.243Z,100681.46
2019-04-25T17:25:18.735Z,100679.00
2019-04-25T17:27:46.979Z,100683.08
2019-04-25T17:30:15.475Z,100683.54
2019-04-25T17:32:52.870Z,100686.14
2019-04-25T17:35:32.410Z,100689.41
2019-04-25T17:38:11.555Z,100686.45
2019-04-25T17:40:39.854Z,100694.20
2019-04-25T17:43:11.206Z,100697.60
2019-04-25T17:45:39.040Z,100685.86
2019-04-25T17:48:07.466Z,100691.95
2019-04-25T17:50:35.718Z,100685.00
2019-04-25T17:53:03.924Z,100685.47
2019-04-25T17:55:33.231Z,100690.40
2019-04-25T17:58:01.862Z,100692.11
2019-04-25T18:00:33.792Z,100688.44
2019-04-25T18:03:02.082Z,100683.71
2019-04-25T18:05:30.577Z,100691.20
2019-04-25T18:07:58.764Z,100688.84
2019-04-25T18:10:27.147Z,100692.36
2019-04-25T18:12:55.723Z,100688.07
2019-04-25T18:15:42.398Z,100686.95
2019-04-25T18:18:12.255Z,100691.72
2019-04-25T18:20:43.010Z,100692.52
2019-04-25T18:23:15.554Z,100690.24
2019-04-25T18:25:48.454Z,100682.69
2019-04-25T18:28:18.307Z,100686.96
2019-04-25T18:30:47.216Z,100682.48
2019-04-25T18:33:20.201Z,100686.66
2019-04-25T18:35:50.048Z,100690.48
2019-04-25T18:38:28.714Z,100689.95
2019-04-25T18:41:14.810Z,100690.61
2019-04-25T18:43:44.875Z,100690.30
2019-04-25T18:46:15.070Z,100695.53
2019-04-25T18:48:43.290Z,100694.30
2019-04-25T18:51:11.838Z,100698.72
2019-04-25T18:53:53.865Z,100699.73
2019-04-25T18:56:26.431Z,100698.75
2019-04-25T18:59:05.180Z,100694.97
2019-04-25T19:01:38.146Z,100703.56
2019-04-25T19:04:08.148Z,100699.64
2019-04-25T19:06:36.347Z,100703.59
2019-04-25T19:09:05.293Z,100701.21
2019-04-25T19:11:33.523Z,100699.09
2019-04-25T19:14:02.061Z,100707.83
2019-04-25T19:16:30.405Z,100703.61
2019-04-25T19:18:58.616Z,100706.54
2019-04-25T19:21:26.832Z,100705.64
2019-04-25T19:23:55.064Z,100697.38
2019-04-25T19:26:23.542Z,100698.48
2019-04-25T19:28:51.860Z,100694.17
2019-04-25T19:31:20.454Z,100691.75
2019-04-25T19:33:48.980Z,100688.22
2019-04-25T19:36:19.251Z,100690.95
2019-04-25T19:38:47.942Z,100689.71
2019-04-25T19:41:20.580Z,100688.99
2019-04-25T19:44:05.774Z,100686.27
2019-04-25T19:46:38.191Z,100690.55
2019-04-25T19:49:06.730Z,100691.23
2019-04-25T19:51:35.136Z,100688.42
2019-04-25T19:54:04.340Z,100686.83
2019-04-25T19:56:32.559Z,100685.27
2019-04-25T19:59:00.764Z,100683.11
2019-04-25T20:01:29.906Z,100683.03
2019-04-25T20:04:03.068Z,100693.05
2019-04-25T20:06:49.479Z,100685.27
2019-04-25T20:09:25.036Z,100691.30
2019-04-25T20:11:54.891Z,100682.72
2019-04-25T20:14:23.484Z,100673.80
2019-04-25T20:16:51.772Z,100673.47
2019-04-25T20:19:20.325Z,100666.53
2019-04-25T20:21:48.549Z,100672.73
2019-04-25T20:24:16.877Z,100668.03
2019-04-25T20:26:46.303Z,100667.77
2019-04-25T20:29:14.866Z,100678.00
2019-04-25T20:31:45.175Z,100671.33
2019-04-25T20:34:13.484Z,100674.78
2019-04-25T20:36:41.737Z,100675.34
2019-04-25T20:39:10.233Z,100668.67
2019-04-25T20:41:38.468Z,100659.42
2019-04-25T20:44:06.689Z,100660.25
2019-04-25T20:46:34.915Z,100649.59
2019-04-25T20:49:03.462Z,100662.22
2019-04-25T20:51:32.153Z,100665.03
2019-04-25T20:54:00.362Z,100669.50
2019-04-25T20:56:28.867Z,100660.59
2019-04-25T20:58:57.699Z,100659.75
2019-04-25T21:01:25.976Z,100657.29
2019-04-25T21:03:54.212Z,100656.80
2019-04-25T21:06:27.251Z,100650.34
2019-04-25T21:08:55.455Z,100655.13
2019-04-25T21:11:24.060Z,100648.22
2019-04-25T21:14:03.071Z,100651.59
2019-04-25T21:16:51.941Z,100644.13
2019-04-25T21:19:24.443Z,100654.02
2019-04-25T21:21:53.015Z,100642.70
2019-04-25T21:24:21.486Z,100649.89
2019-04-25T21:26:50.223Z,100644.28
2019-04-25T21:29:19.902Z,100648.56
2019-04-25T21:31:48.459Z,100642.69
2019-04-25T21:34:25.799Z,100650.59
2019-04-25T21:36:46.871Z,100645.16
2019-04-25T21:39:19.479Z,100653.98
2019-04-25T21:41:52.366Z,100651.08
2019-04-25T21:44:21.605Z,100651.22
2019-04-25T21:46:49.850Z,100652.76
2019-04-25T21:49:18.311Z,100649.78
2019-04-25T21:51:46.547Z,100647.38
2019-04-25T21:54:15.250Z,100652.72
2019-04-25T21:56:43.913Z,100649.19
2019-04-25T21:59:13.792Z,100644.98
2019-04-25T22:01:42.772Z,100647.68
2019-04-25T22:04:11.116Z,100647.41
2019-04-25T22:06:39.911Z,100637.70
2019-04-25T22:09:11.084Z,100647.02
2019-04-25T22:11:39.630Z,100641.70
2019-04-25T22:14:08.491Z,100646.87
2019-04-25T22:16:36.985Z,100640.59
2019-04-25T22:19:06.542Z,100644.69
2019-04-25T22:21:38.401Z,100632.12
2019-04-25T22:24:11.032Z,100636.98
2019-04-25T22:26:35.018Z,100633.08
2019-04-25T22:29:03.844Z,100635.20
2019-04-25T22:31:39.674Z,100630.56
2019-04-25T22:34:25.898Z,100625.30
2019-04-25T22:36:54.173Z,100629.16
2019-04-25T22:39:22.609Z,100622.94
2019-04-25T22:41:51.103Z,100622.37
2019-04-25T22:44:21.482Z,100619.23
2019-04-25T22:46:50.337Z,100626.41
2019-04-25T22:49:18.599Z,100617.38
2019-04-25T22:51:46.816Z,100611.12
2019-04-25T22:54:15.425Z,100608.85
2019-04-25T22:56:44.176Z,100602.68
2019-04-25T22:59:13.416Z,100602.45
2019-04-25T23:01:59.733Z,100600.24
2019-04-25T23:04:33.357Z,100603.61
2019-04-25T23:07:02.569Z,100597.45
2019-04-25T23:09:32.759Z,100604.45
2019-04-25T23:12:02.059Z,100600.24
2019-04-25T23:14:30.714Z,100605.67
2019-04-25T23:16:59.768Z,100609.05
2019-04-25T23:19:27.982Z,100601.77
2019-04-25T23:21:56.403Z,100600.64
2019-04-25T23:24:26.256Z,100602.04
2019-04-25T23:26:56.456Z,100602.04
2019-04-25T23:29:24.705Z,100599.17
2019-04-25T23:31:52.970Z,100600.64
2019-04-25T23:34:21.511Z,100597.58
2019-04-25T23:36:49.750Z,100595.94
2019-04-25T23:39:18.125Z,100594.27
2019-04-25T23:41:46.335Z,100600.20
2019-04-25T23:44:14.863Z,100600.77
2019-04-25T23:46:43.444Z,100593.03
2019-04-25T23:49:12.705Z,100594.43
2019-04-25T23:51:41.329Z,100592.53
2019-04-25T23:54:09.522Z,100592.27
2019-04-25T23:56:37.743Z,100588.39
2019-04-25T23:59:08.304Z,100576.95
